sensor_id;sensor_type;location;lat;lon;timestamp;P1;durP1;ratioP1;P2;durP2;ratioP2
7969;SDS011;4030;52.362;9.206;2023-04-03T00:01:36;1.93;;;1.00;;
7969;SDS011;4030;52.362;9.206;2023-04-03T00:04:03;1.83;;;1.00;;
7969;SDS011;4030;52.362;9.206;2023-04-03T00:06:32;3.33;;;1.20;;
7969;SDS011;4030;52.362;9.206;2023-04-03T00:08:58;2.13;;;1.27;;
7969;SDS011;4030;52.362;9.206;2023-04-03T00:11:24;2.67;;;1.20;;
7969;SDS011;4030;52.362;9.206;2023-04-03T00:13:51;2.77;;;1.17;;
7969;SDS011;4030;52.362;9.206;2023-04-03T00:16:17;2.77;;;1.20;;
7969;SDS011;4030;52.362;9.206;2023-04-03T00:18:43;2.10;;;1.13;;
7969;SDS011;4030;52.362;9.206;2023-04-03T00:21:10;2.90;;;1.20;;
7969;SDS011;4030;52.362;9.206;2023-04-03T00:23:38;2.60;;;1.27;;
7969;SDS011;4030;52.362;9.206;2023-04-03T00:26:04;2.23;;;1.10;;
7969;SDS011;4030;52.362;9.206;2023-04-03T00:28:30;2.47;;;1.17;;
7969;SDS011;4030;52.362;9.206;2023-04-03T00:30:55;2.53;;;1.17;;
7969;SDS011;4030;52.362;9.206;2023-04-03T00:33:21;2.60;;;1.00;;
7969;SDS011;4030;52.362;9.206;2023-04-03T00:35:47;2.13;;;1.17;;
7969;SDS011;4030;52.362;9.206;2023-04-03T00:38:14;3.27;;;1.30;;
7969;SDS011;4030;52.362;9.206;2023-04-03T00:40:41;2.50;;;1.33;;
7969;SDS011;4030;52.362;9.206;2023-04-03T00:43:14;2.37;;;1.07;;
7969;SDS011;4030;52.362;9.206;2023-04-03T00:45:47;1.53;;;0.90;;
7969;SDS011;4030;52.362;9.206;2023-04-03T00:48:20;2.17;;;1.03;;
7969;SDS011;4030;52.362;9.206;2023-04-03T00:50:58;2.77;;;1.30;;
7969;SDS011;4030;52.362;9.206;2023-04-03T00:53:29;3.70;;;1.20;;
7969;SDS011;4030;52.362;9.206;2023-04-03T00:56:03;2.30;;;1.23;;
7969;SDS011;4030;52.362;9.206;2023-04-03T00:58:37;2.33;;;0.93;;
7969;SDS011;4030;52.362;9.206;2023-04-03T01:01:12;1.60;;;1.00;;
7969;SDS011;4030;52.362;9.206;2023-04-03T01:03:45;3.30;;;1.30;;
7969;SDS011;4030;52.362;9.206;2023-04-03T01:06:11;2.87;;;1.20;;
7969;SDS011;4030;52.362;9.206;2023-04-03T01:08:39;1.30;;;0.90;;
7969;SDS011;4030;52.362;9.206;2023-04-03T01:11:04;2.50;;;0.93;;
7969;SDS011;4030;52.362;9.206;2023-04-03T01:13:31;1.77;;;1.20;;
7969;SDS011;4030;52.362;9.206;2023-04-03T01:16:00;3.13;;;1.17;;
7969;SDS011;4030;52.362;9.206;2023-04-03T01:18:28;2.50;;;1.10;;
7969;SDS011;4030;52.362;9.206;2023-04-03T01:23:30;1.83;;;1.03;;
7969;SDS011;4030;52.362;9.206;2023-04-03T01:26:10;2.90;;;1.30;;
7969;SDS011;4030;52.362;9.206;2023-04-03T01:28:36;2.90;;;1.00;;
7969;SDS011;4030;52.362;9.206;2023-04-03T01:33:47;2.13;;;1.00;;
7969;SDS011;4030;52.362;9.206;2023-04-03T01:36:15;2.80;;;1.10;;
7969;SDS011;4030;52.362;9.206;2023-04-03T01:38:52;1.67;;;1.07;;
7969;SDS011;4030;52.362;9.206;2023-04-03T01:41:18;2.90;;;1.20;;
7969;SDS011;4030;52.362;9.206;2023-04-03T01:43:46;2.03;;;1.20;;
7969;SDS011;4030;52.362;9.206;2023-04-03T01:46:12;2.60;;;1.00;;
7969;SDS011;4030;52.362;9.206;2023-04-03T01:48:39;3.83;;;1.10;;
7969;SDS011;4030;52.362;9.206;2023-04-03T01:51:05;2.07;;;1.10;;
7969;SDS011;4030;52.362;9.206;2023-04-03T01:53:31;2.37;;;1.33;;
7969;SDS011;4030;52.362;9.206;2023-04-03T01:55:57;1.87;;;1.10;;
7969;SDS011;4030;52.362;9.206;2023-04-03T01:58:23;3.00;;;1.07;;
7969;SDS011;4030;52.362;9.206;2023-04-03T02:00:50;1.60;;;1.20;;
7969;SDS011;4030;52.362;9.206;2023-04-03T02:03:16;1.57;;;1.00;;
7969;SDS011;4030;52.362;9.206;2023-04-03T02:05:42;2.57;;;1.20;;
7969;SDS011;4030;52.362;9.206;2023-04-03T02:08:08;2.57;;;1.30;;
7969;SDS011;4030;52.362;9.206;2023-04-03T02:10:34;3.90;;;1.37;;
7969;SDS011;4030;52.362;9.206;2023-04-03T02:13:00;3.23;;;1.30;;
7969;SDS011;4030;52.362;9.206;2023-04-03T02:15:26;1.70;;;0.90;;
7969;SDS011;4030;52.362;9.206;2023-04-03T02:17:52;3.07;;;1.20;;
7969;SDS011;4030;52.362;9.206;2023-04-03T02:20:18;3.30;;;1.30;;
7969;SDS011;4030;52.362;9.206;2023-04-03T02:22:44;2.53;;;1.00;;
7969;SDS011;4030;52.362;9.206;2023-04-03T02:25:10;3.00;;;1.30;;
7969;SDS011;4030;52.362;9.206;2023-04-03T02:27:37;1.90;;;1.07;;
7969;SDS011;4030;52.362;9.206;2023-04-03T02:30:03;2.47;;;1.30;;
7969;SDS011;4030;52.362;9.206;2023-04-03T02:32:30;2.33;;;1.00;;
7969;SDS011;4030;52.362;9.206;2023-04-03T02:34:56;2.57;;;1.47;;
7969;SDS011;4030;52.362;9.206;2023-04-03T02:37:22;3.00;;;1.00;;
7969;SDS011;4030;52.362;9.206;2023-04-03T02:39:48;2.20;;;1.20;;
7969;SDS011;4030;52.362;9.206;2023-04-03T02:42:15;2.97;;;1.30;;
7969;SDS011;4030;52.362;9.206;2023-04-03T02:44:41;2.30;;;1.10;;
7969;SDS011;4030;52.362;9.206;2023-04-03T02:47:07;1.90;;;1.07;;
7969;SDS011;4030;52.362;9.206;2023-04-03T02:49:33;2.17;;;1.00;;
7969;SDS011;4030;52.362;9.206;2023-04-03T02:51:58;2.17;;;1.07;;
7969;SDS011;4030;52.362;9.206;2023-04-03T02:54:25;2.20;;;1.00;;
7969;SDS011;4030;52.362;9.206;2023-04-03T02:56:53;2.23;;;1.07;;
7969;SDS011;4030;52.362;9.206;2023-04-03T02:59:19;2.60;;;1.20;;
7969;SDS011;4030;52.362;9.206;2023-04-03T03:01:45;3.53;;;1.30;;
7969;SDS011;4030;52.362;9.206;2023-04-03T03:04:11;1.87;;;1.00;;
7969;SDS011;4030;52.362;9.206;2023-04-03T03:06:37;2.47;;;1.30;;
7969;SDS011;4030;52.362;9.206;2023-04-03T03:09:03;2.87;;;1.17;;
7969;SDS011;4030;52.362;9.206;2023-04-03T03:11:30;1.80;;;1.00;;
7969;SDS011;4030;52.362;9.206;2023-04-03T03:13:57;2.13;;;1.20;;
7969;SDS011;4030;52.362;9.206;2023-04-03T03:16:23;2.37;;;1.30;;
7969;SDS011;4030;52.362;9.206;2023-04-03T03:18:48;1.90;;;1.23;;
7969;SDS011;4030;52.362;9.206;2023-04-03T03:21:14;1.40;;;1.00;;
7969;SDS011;4030;52.362;9.206;2023-04-03T03:23:40;2.37;;;1.30;;
7969;SDS011;4030;52.362;9.206;2023-04-03T03:26:07;2.37;;;1.10;;
7969;SDS011;4030;52.362;9.206;2023-04-03T03:28:35;1.50;;;0.90;;
7969;SDS011;4030;52.362;9.206;2023-04-03T03:31:02;3.20;;;1.20;;
7969;SDS011;4030;52.362;9.206;2023-04-03T03:33:28;1.93;;;1.23;;
7969;SDS011;4030;52.362;9.206;2023-04-03T03:35:54;2.57;;;1.20;;
7969;SDS011;4030;52.362;9.206;2023-04-03T03:38:20;2.00;;;1.07;;
7969;SDS011;4030;52.362;9.206;2023-04-03T03:40:47;3.07;;;1.30;;
7969;SDS011;4030;52.362;9.206;2023-04-03T03:43:14;2.10;;;1.23;;
7969;SDS011;4030;52.362;9.206;2023-04-03T03:45:40;2.50;;;1.37;;
7969;SDS011;4030;52.362;9.206;2023-04-03T03:48:06;2.60;;;1.30;;
7969;SDS011;4030;52.362;9.206;2023-04-03T03:50:32;1.43;;;1.00;;
7969;SDS011;4030;52.362;9.206;2023-04-03T03:52:58;3.63;;;1.50;;
7969;SDS011;4030;52.362;9.206;2023-04-03T03:55:25;1.90;;;1.30;;
7969;SDS011;4030;52.362;9.206;2023-04-03T03:57:50;2.73;;;1.13;;
7969;SDS011;4030;52.362;9.206;2023-04-03T04:00:16;2.50;;;1.27;;
7969;SDS011;4030;52.362;9.206;2023-04-03T04:02:43;2.00;;;1.20;;
7969;SDS011;4030;52.362;9.206;2023-04-03T04:05:08;2.73;;;1.20;;
7969;SDS011;4030;52.362;9.206;2023-04-03T04:07:34;3.50;;;1.60;;
7969;SDS011;4030;52.362;9.206;2023-04-03T04:10:00;3.47;;;1.40;;
7969;SDS011;4030;52.362;9.206;2023-04-03T04:12:27;2.60;;;1.30;;
7969;SDS011;4030;52.362;9.206;2023-04-03T04:14:53;2.97;;;1.40;;
7969;SDS011;4030;52.362;9.206;2023-04-03T04:17:19;2.63;;;1.30;;
7969;SDS011;4030;52.362;9.206;2023-04-03T04:19:45;2.20;;;1.27;;
7969;SDS011;4030;52.362;9.206;2023-04-03T04:22:11;2.60;;;1.10;;
7969;SDS011;4030;52.362;9.206;2023-04-03T04:24:37;2.93;;;1.53;;
7969;SDS011;4030;52.362;9.206;2023-04-03T04:27:03;2.20;;;1.20;;
7969;SDS011;4030;52.362;9.206;2023-04-03T04:29:29;3.00;;;1.40;;
7969;SDS011;4030;52.362;9.206;2023-04-03T04:32:00;3.27;;;1.30;;
7969;SDS011;4030;52.362;9.206;2023-04-03T04:34:27;3.77;;;1.30;;
7969;SDS011;4030;52.362;9.206;2023-04-03T04:36:53;1.93;;;1.10;;
7969;SDS011;4030;52.362;9.206;2023-04-03T04:39:19;2.03;;;1.10;;
7969;SDS011;4030;52.362;9.206;2023-04-03T04:41:45;3.83;;;1.47;;
7969;SDS011;4030;52.362;9.206;2023-04-03T04:44:12;2.33;;;1.20;;
7969;SDS011;4030;52.362;9.206;2023-04-03T04:46:38;2.60;;;1.37;;
7969;SDS011;4030;52.362;9.206;2023-04-03T04:49:04;2.80;;;1.30;;
7969;SDS011;4030;52.362;9.206;2023-04-03T04:51:30;2.07;;;1.30;;
7969;SDS011;4030;52.362;9.206;2023-04-03T04:53:56;1.83;;;1.17;;
7969;SDS011;4030;52.362;9.206;2023-04-03T04:56:22;3.13;;;1.40;;
7969;SDS011;4030;52.362;9.206;2023-04-03T04:58:48;1.83;;;1.10;;
7969;SDS011;4030;52.362;9.206;2023-04-03T05:01:14;3.50;;;1.33;;
7969;SDS011;4030;52.362;9.206;2023-04-03T05:03:40;2.30;;;1.30;;
7969;SDS011;4030;52.362;9.206;2023-04-03T05:06:06;3.53;;;1.33;;
7969;SDS011;4030;52.362;9.206;2023-04-03T05:08:32;2.70;;;1.20;;
7969;SDS011;4030;52.362;9.206;2023-04-03T05:10:58;2.47;;;1.10;;
7969;SDS011;4030;52.362;9.206;2023-04-03T05:13:24;1.73;;;1.13;;
7969;SDS011;4030;52.362;9.206;2023-04-03T05:15:50;4.00;;;1.20;;
7969;SDS011;4030;52.362;9.206;2023-04-03T05:18:16;2.67;;;1.30;;
7969;SDS011;4030;52.362;9.206;2023-04-03T05:20:42;2.83;;;1.30;;
7969;SDS011;4030;52.362;9.206;2023-04-03T05:23:09;2.30;;;1.30;;
7969;SDS011;4030;52.362;9.206;2023-04-03T05:25:37;2.60;;;1.40;;
7969;SDS011;4030;52.362;9.206;2023-04-03T05:28:03;1.87;;;1.10;;
7969;SDS011;4030;52.362;9.206;2023-04-03T05:30:29;2.53;;;1.50;;
7969;SDS011;4030;52.362;9.206;2023-04-03T05:32:55;2.33;;;1.10;;
7969;SDS011;4030;52.362;9.206;2023-04-03T05:35:21;3.57;;;1.30;;
7969;SDS011;4030;52.362;9.206;2023-04-03T05:37:47;3.50;;;1.80;;
7969;SDS011;4030;52.362;9.206;2023-04-03T05:40:13;2.50;;;1.20;;
7969;SDS011;4030;52.362;9.206;2023-04-03T05:42:39;3.57;;;1.40;;
7969;SDS011;4030;52.362;9.206;2023-04-03T05:45:05;3.27;;;1.40;;
7969;SDS011;4030;52.362;9.206;2023-04-03T05:47:31;3.40;;;1.20;;
7969;SDS011;4030;52.362;9.206;2023-04-03T05:49:57;2.93;;;1.20;;
7969;SDS011;4030;52.362;9.206;2023-04-03T05:52:27;2.10;;;1.30;;
7969;SDS011;4030;52.362;9.206;2023-04-03T05:55:05;2.50;;;1.30;;
7969;SDS011;4030;52.362;9.206;2023-04-03T05:57:32;3.07;;;1.50;;
7969;SDS011;4030;52.362;9.206;2023-04-03T05:59:57;2.67;;;1.20;;
7969;SDS011;4030;52.362;9.206;2023-04-03T06:02:24;3.30;;;1.30;;
7969;SDS011;4030;52.362;9.206;2023-04-03T06:04:51;2.33;;;1.30;;
7969;SDS011;4030;52.362;9.206;2023-04-03T06:07:18;4.10;;;1.30;;
7969;SDS011;4030;52.362;9.206;2023-04-03T06:09:47;2.63;;;1.47;;
7969;SDS011;4030;52.362;9.206;2023-04-03T06:12:17;3.13;;;1.30;;
7969;SDS011;4030;52.362;9.206;2023-04-03T06:14:43;3.07;;;1.10;;
7969;SDS011;4030;52.362;9.206;2023-04-03T06:17:09;2.73;;;1.37;;
7969;SDS011;4030;52.362;9.206;2023-04-03T06:19:37;2.33;;;1.20;;
7969;SDS011;4030;52.362;9.206;2023-04-03T06:22:02;2.10;;;1.30;;
7969;SDS011;4030;52.362;9.206;2023-04-03T06:24:28;3.47;;;1.40;;
7969;SDS011;4030;52.362;9.206;2023-04-03T06:26:55;2.80;;;1.30;;
7969;SDS011;4030;52.362;9.206;2023-04-03T06:29:21;4.00;;;1.33;;
7969;SDS011;4030;52.362;9.206;2023-04-03T06:31:48;2.07;;;1.30;;
7969;SDS011;4030;52.362;9.206;2023-04-03T06:34:14;3.37;;;1.37;;
7969;SDS011;4030;52.362;9.206;2023-04-03T06:36:41;2.57;;;1.30;;
7969;SDS011;4030;52.362;9.206;2023-04-03T06:39:08;2.07;;;1.27;;
7969;SDS011;4030;52.362;9.206;2023-04-03T06:41:38;3.40;;;1.67;;
7969;SDS011;4030;52.362;9.206;2023-04-03T06:44:04;5.30;;;1.50;;
7969;SDS011;4030;52.362;9.206;2023-04-03T06:46:31;3.70;;;1.77;;
7969;SDS011;4030;52.362;9.206;2023-04-03T06:48:57;3.90;;;1.77;;
7969;SDS011;4030;52.362;9.206;2023-04-03T06:51:24;2.70;;;1.27;;
7969;SDS011;4030;52.362;9.206;2023-04-03T06:53:55;2.93;;;1.30;;
7969;SDS011;4030;52.362;9.206;2023-04-03T06:56:22;3.50;;;1.40;;
7969;SDS011;4030;52.362;9.206;2023-04-03T06:58:48;2.40;;;1.33;;
7969;SDS011;4030;52.362;9.206;2023-04-03T07:01:16;3.70;;;1.47;;
7969;SDS011;4030;52.362;9.206;2023-04-03T07:03:44;2.20;;;1.20;;
7969;SDS011;4030;52.362;9.206;2023-04-03T07:06:11;3.17;;;1.30;;
7969;SDS011;4030;52.362;9.206;2023-04-03T07:08:38;3.80;;;1.40;;
7969;SDS011;4030;52.362;9.206;2023-04-03T07:11:04;3.20;;;1.20;;
7969;SDS011;4030;52.362;9.206;2023-04-03T07:13:30;2.73;;;1.10;;
7969;SDS011;4030;52.362;9.206;2023-04-03T07:15:56;3.13;;;1.40;;
7969;SDS011;4030;52.362;9.206;2023-04-03T07:18:22;3.10;;;1.43;;
7969;SDS011;4030;52.362;9.206;2023-04-03T07:20:48;3.27;;;1.57;;
7969;SDS011;4030;52.362;9.206;2023-04-03T07:23:14;2.57;;;1.30;;
7969;SDS011;4030;52.362;9.206;2023-04-03T07:25:43;3.63;;;1.50;;
7969;SDS011;4030;52.362;9.206;2023-04-03T07:28:11;2.97;;;1.70;;
7969;SDS011;4030;52.362;9.206;2023-04-03T07:30:44;3.23;;;1.43;;
7969;SDS011;4030;52.362;9.206;2023-04-03T07:33:12;2.33;;;1.30;;
7969;SDS011;4030;52.362;9.206;2023-04-03T07:35:39;2.33;;;1.20;;
7969;SDS011;4030;52.362;9.206;2023-04-03T07:38:05;3.67;;;1.40;;
7969;SDS011;4030;52.362;9.206;2023-04-03T07:40:32;3.20;;;1.70;;
7969;SDS011;4030;52.362;9.206;2023-04-03T07:42:58;3.07;;;1.40;;
7969;SDS011;4030;52.362;9.206;2023-04-03T07:45:24;2.77;;;1.60;;
7969;SDS011;4030;52.362;9.206;2023-04-03T07:47:50;2.33;;;1.60;;
7969;SDS011;4030;52.362;9.206;2023-04-03T07:50:16;2.30;;;1.23;;
7969;SDS011;4030;52.362;9.206;2023-04-03T07:52:43;2.23;;;1.40;;
7969;SDS011;4030;52.362;9.206;2023-04-03T07:55:09;3.70;;;1.90;;
7969;SDS011;4030;52.362;9.206;2023-04-03T07:57:35;3.90;;;1.50;;
7969;SDS011;4030;52.362;9.206;2023-04-03T08:00:01;2.60;;;1.60;;
7969;SDS011;4030;52.362;9.206;2023-04-03T08:02:29;2.73;;;1.40;;
7969;SDS011;4030;52.362;9.206;2023-04-03T08:04:56;2.83;;;1.47;;
7969;SDS011;4030;52.362;9.206;2023-04-03T08:07:23;3.13;;;1.50;;
7969;SDS011;4030;52.362;9.206;2023-04-03T08:09:49;4.60;;;1.40;;
7969;SDS011;4030;52.362;9.206;2023-04-03T08:12:15;3.40;;;1.60;;
7969;SDS011;4030;52.362;9.206;2023-04-03T08:14:41;3.60;;;1.70;;
7969;SDS011;4030;52.362;9.206;2023-04-03T08:17:07;3.10;;;1.50;;
7969;SDS011;4030;52.362;9.206;2023-04-03T08:19:36;1.63;;;1.00;;
7969;SDS011;4030;52.362;9.206;2023-04-03T08:22:03;3.17;;;1.30;;
7969;SDS011;4030;52.362;9.206;2023-04-03T08:24:30;1.83;;;1.40;;
7969;SDS011;4030;52.362;9.206;2023-04-03T08:26:57;2.87;;;1.63;;
7969;SDS011;4030;52.362;9.206;2023-04-03T08:29:23;3.97;;;1.43;;
7969;SDS011;4030;52.362;9.206;2023-04-03T08:31:49;3.20;;;1.60;;
7969;SDS011;4030;52.362;9.206;2023-04-03T08:34:15;3.63;;;1.80;;
7969;SDS011;4030;52.362;9.206;2023-04-03T08:36:42;3.43;;;2.00;;
7969;SDS011;4030;52.362;9.206;2023-04-03T08:39:08;3.43;;;1.50;;
7969;SDS011;4030;52.362;9.206;2023-04-03T08:41:36;2.87;;;1.70;;
7969;SDS011;4030;52.362;9.206;2023-04-03T08:44:23;3.30;;;1.40;;
7969;SDS011;4030;52.362;9.206;2023-04-03T08:50:02;2.67;;;1.30;;
7969;SDS011;4030;52.362;9.206;2023-04-03T08:52:35;3.00;;;1.40;;
7969;SDS011;4030;52.362;9.206;2023-04-03T08:55:11;2.30;;;1.27;;
7969;SDS011;4030;52.362;9.206;2023-04-03T08:57:45;2.83;;;1.50;;
7969;SDS011;4030;52.362;9.206;2023-04-03T09:03:01;1.90;;;1.20;;
7969;SDS011;4030;52.362;9.206;2023-04-03T09:08:16;1.83;;;0.90;;
7969;SDS011;4030;52.362;9.206;2023-04-03T09:10:52;2.70;;;1.23;;
7969;SDS011;4030;52.362;9.206;2023-04-03T09:16:35;2.70;;;1.10;;
7969;SDS011;4030;52.362;9.206;2023-04-03T09:22:15;1.52;;;0.98;;
7969;SDS011;4030;52.362;9.206;2023-04-03T09:27:45;1.52;;;1.00;;
7969;SDS011;4030;52.362;9.206;2023-04-03T09:30:32;2.00;;;1.02;;
7969;SDS011;4030;52.362;9.206;2023-04-03T09:32:58;1.30;;;0.85;;
7969;SDS011;4030;52.362;9.206;2023-04-03T09:35:30;2.05;;;1.20;;
7969;SDS011;4030;52.362;9.206;2023-04-03T09:38:14;2.25;;;1.10;;
7969;SDS011;4030;52.362;9.206;2023-04-03T09:40:43;2.00;;;1.13;;
7969;SDS011;4030;52.362;9.206;2023-04-03T09:43:30;3.13;;;1.10;;
7969;SDS011;4030;52.362;9.206;2023-04-03T09:46:24;1.83;;;1.00;;
7969;SDS011;4030;52.362;9.206;2023-04-03T09:49:00;1.95;;;0.90;;
7969;SDS011;4030;52.362;9.206;2023-04-03T09:51:30;2.13;;;1.20;;
7969;SDS011;4030;52.362;9.206;2023-04-03T09:53:56;2.42;;;1.10;;
7969;SDS011;4030;52.362;9.206;2023-04-03T09:56:29;2.47;;;1.20;;
7969;SDS011;4030;52.362;9.206;2023-04-03T10:01:32;1.85;;;1.10;;
7969;SDS011;4030;52.362;9.206;2023-04-03T10:06:31;1.65;;;0.80;;
7969;SDS011;4030;52.362;9.206;2023-04-03T10:09:05;2.80;;;1.20;;
7969;SDS011;4030;52.362;9.206;2023-04-03T10:12:08;2.50;;;1.17;;
7969;SDS011;4030;52.362;9.206;2023-04-03T10:14:41;2.05;;;0.93;;
7969;SDS011;4030;52.362;9.206;2023-04-03T10:17:50;1.63;;;1.00;;
7969;SDS011;4030;52.362;9.206;2023-04-03T10:20:34;1.73;;;0.98;;
7969;SDS011;4030;52.362;9.206;2023-04-03T10:23:17;3.17;;;1.20;;
7969;SDS011;4030;52.362;9.206;2023-04-03T10:31:05;1.63;;;0.80;;
7969;SDS011;4030;52.362;9.206;2023-04-03T10:33:56;1.67;;;1.00;;
7969;SDS011;4030;52.362;9.206;2023-04-03T10:36:53;2.10;;;1.00;;
7969;SDS011;4030;52.362;9.206;2023-04-03T10:42:45;1.58;;;0.90;;
7969;SDS011;4030;52.362;9.206;2023-04-03T10:45:19;1.67;;;1.05;;
7969;SDS011;4030;52.362;9.206;2023-04-03T10:48:01;2.25;;;1.00;;
7969;SDS011;4030;52.362;9.206;2023-04-03T10:50:47;2.67;;;1.15;;
7969;SDS011;4030;52.362;9.206;2023-04-03T10:58:58;1.10;;;0.90;;
7969;SDS011;4030;52.362;9.206;2023-04-03T11:01:30;2.97;;;1.10;;
7969;SDS011;4030;52.362;9.206;2023-04-03T11:03:59;1.70;;;0.80;;
7969;SDS011;4030;52.362;9.206;2023-04-03T11:06:39;1.42;;;0.90;;
7969;SDS011;4030;52.362;9.206;2023-04-03T11:09:19;2.20;;;1.20;;
7969;SDS011;4030;52.362;9.206;2023-04-03T11:11:55;1.48;;;0.82;;
7969;SDS011;4030;52.362;9.206;2023-04-03T11:14:34;2.28;;;0.90;;
7969;SDS011;4030;52.362;9.206;2023-04-03T11:17:04;1.23;;;0.85;;
7969;SDS011;4030;52.362;9.206;2023-04-03T11:19:55;1.65;;;0.90;;
7969;SDS011;4030;52.362;9.206;2023-04-03T11:30:14;1.50;;;0.90;;
7969;SDS011;4030;52.362;9.206;2023-04-03T11:35:42;1.15;;;0.73;;
7969;SDS011;4030;52.362;9.206;2023-04-03T11:38:23;1.63;;;0.90;;
7969;SDS011;4030;52.362;9.206;2023-04-03T11:40:55;3.88;;;0.90;;
7969;SDS011;4030;52.362;9.206;2023-04-03T11:43:24;0.95;;;0.70;;
7969;SDS011;4030;52.362;9.206;2023-04-03T11:45:56;1.05;;;0.80;;
7969;SDS011;4030;52.362;9.206;2023-04-03T11:50:57;1.80;;;0.90;;
7969;SDS011;4030;52.362;9.206;2023-04-03T11:53:29;1.95;;;0.98;;
7969;SDS011;4030;52.362;9.206;2023-04-03T12:01:55;1.55;;;0.80;;
7969;SDS011;4030;52.362;9.206;2023-04-03T12:04:24;1.52;;;0.80;;
7969;SDS011;4030;52.362;9.206;2023-04-03T12:06:53;1.20;;;0.90;;
7969;SDS011;4030;52.362;9.206;2023-04-03T12:15:43;1.38;;;0.70;;
7969;SDS011;4030;52.362;9.206;2023-04-03T12:21:05;1.65;;;0.82;;
7969;SDS011;4030;52.362;9.206;2023-04-03T12:23:35;1.15;;;0.70;;
7969;SDS011;4030;52.362;9.206;2023-04-03T12:26:04;1.05;;;0.80;;
7969;SDS011;4030;52.362;9.206;2023-04-03T12:28:42;1.52;;;0.77;;
7969;SDS011;4030;52.362;9.206;2023-04-03T12:31:09;1.20;;;0.80;;
7969;SDS011;4030;52.362;9.206;2023-04-03T12:34:00;2.92;;;0.80;;
7969;SDS011;4030;52.362;9.206;2023-04-03T12:36:40;2.60;;;0.80;;
7969;SDS011;4030;52.362;9.206;2023-04-03T12:39:40;5.10;;;0.88;;
7969;SDS011;4030;52.362;9.206;2023-04-03T12:42:32;2.00;;;0.77;;
7969;SDS011;4030;52.362;9.206;2023-04-03T12:45:20;2.90;;;0.90;;
7969;SDS011;4030;52.362;9.206;2023-04-03T12:47:49;2.92;;;1.10;;
7969;SDS011;4030;52.362;9.206;2023-04-03T12:50:22;1.98;;;0.75;;
7969;SDS011;4030;52.362;9.206;2023-04-03T12:52:59;2.08;;;0.80;;
7969;SDS011;4030;52.362;9.206;2023-04-03T12:55:30;2.70;;;0.90;;
7969;SDS011;4030;52.362;9.206;2023-04-03T12:57:56;0.70;;;0.70;;
7969;SDS011;4030;52.362;9.206;2023-04-03T13:00:25;3.15;;;0.82;;
7969;SDS011;4030;52.362;9.206;2023-04-03T13:02:58;1.90;;;0.90;;
7969;SDS011;4030;52.362;9.206;2023-04-03T13:05:28;2.17;;;1.17;;
7969;SDS011;4030;52.362;9.206;2023-04-03T13:07:58;2.55;;;1.20;;
7969;SDS011;4030;52.362;9.206;2023-04-03T13:10:28;2.20;;;1.23;;
7969;SDS011;4030;52.362;9.206;2023-04-03T13:12:55;3.90;;;1.30;;
7969;SDS011;4030;52.362;9.206;2023-04-03T13:15:41;1.27;;;0.90;;
7969;SDS011;4030;52.362;9.206;2023-04-03T13:18:23;2.40;;;1.00;;
7969;SDS011;4030;52.362;9.206;2023-04-03T13:21:00;2.20;;;0.98;;
7969;SDS011;4030;52.362;9.206;2023-04-03T13:23:30;1.48;;;0.82;;
7969;SDS011;4030;52.362;9.206;2023-04-03T13:26:02;1.63;;;1.00;;
7969;SDS011;4030;52.362;9.206;2023-04-03T13:28:29;2.35;;;1.00;;
7969;SDS011;4030;52.362;9.206;2023-04-03T13:30:59;2.35;;;1.00;;
7969;SDS011;4030;52.362;9.206;2023-04-03T13:33:28;1.70;;;0.90;;
7969;SDS011;4030;52.362;9.206;2023-04-03T13:36:07;1.75;;;0.90;;
7969;SDS011;4030;52.362;9.206;2023-04-03T13:38:59;1.83;;;1.00;;
7969;SDS011;4030;52.362;9.206;2023-04-03T13:41:48;2.95;;;1.10;;
7969;SDS011;4030;52.362;9.206;2023-04-03T13:46:56;1.75;;;0.82;;
7969;SDS011;4030;52.362;9.206;2023-04-03T13:52:25;2.50;;;1.00;;
7969;SDS011;4030;52.362;9.206;2023-04-03T13:57:51;1.90;;;1.08;;
7969;SDS011;4030;52.362;9.206;2023-04-03T14:03:20;3.60;;;1.00;;
7969;SDS011;4030;52.362;9.206;2023-04-03T14:05:53;2.70;;;1.13;;
7969;SDS011;4030;52.362;9.206;2023-04-03T14:08:20;2.40;;;1.00;;
7969;SDS011;4030;52.362;9.206;2023-04-03T14:10:46;1.77;;;0.80;;
7969;SDS011;4030;52.362;9.206;2023-04-03T14:13:14;1.80;;;0.90;;
7969;SDS011;4030;52.362;9.206;2023-04-03T14:15:43;1.63;;;1.02;;
7969;SDS011;4030;52.362;9.206;2023-04-03T14:18:11;2.35;;;1.00;;
7969;SDS011;4030;52.362;9.206;2023-04-03T14:20:40;2.47;;;1.00;;
7969;SDS011;4030;52.362;9.206;2023-04-03T14:23:06;1.33;;;0.70;;
7969;SDS011;4030;52.362;9.206;2023-04-03T14:25:32;3.30;;;1.20;;
7969;SDS011;4030;52.362;9.206;2023-04-03T14:27:59;2.45;;;1.05;;
7969;SDS011;4030;52.362;9.206;2023-04-03T14:30:28;1.25;;;0.90;;
7969;SDS011;4030;52.362;9.206;2023-04-03T14:32:56;2.03;;;0.88;;
7969;SDS011;4030;52.362;9.206;2023-04-03T14:35:23;4.18;;;1.00;;
7969;SDS011;4030;52.362;9.206;2023-04-03T14:37:50;2.00;;;1.15;;
7969;SDS011;4030;52.362;9.206;2023-04-03T14:40:22;1.55;;;0.95;;
7969;SDS011;4030;52.362;9.206;2023-04-03T14:42:51;3.45;;;1.13;;
7969;SDS011;4030;52.362;9.206;2023-04-03T14:45:19;1.92;;;0.88;;
7969;SDS011;4030;52.362;9.206;2023-04-03T14:47:53;1.88;;;0.90;;
7969;SDS011;4030;52.362;9.206;2023-04-03T14:50:22;2.13;;;0.82;;
7969;SDS011;4030;52.362;9.206;2023-04-03T14:52:52;2.33;;;0.90;;
7969;SDS011;4030;52.362;9.206;2023-04-03T14:55:22;1.85;;;0.80;;
7969;SDS011;4030;52.362;9.206;2023-04-03T14:57:50;1.70;;;0.73;;
7969;SDS011;4030;52.362;9.206;2023-04-03T15:00:18;1.35;;;0.70;;
7969;SDS011;4030;52.362;9.206;2023-04-03T15:02:46;1.85;;;0.80;;
7969;SDS011;4030;52.362;9.206;2023-04-03T15:05:12;1.90;;;0.88;;
7969;SDS011;4030;52.362;9.206;2023-04-03T15:07:44;1.42;;;1.00;;
7969;SDS011;4030;52.362;9.206;2023-04-03T15:12:48;2.17;;;1.00;;
7969;SDS011;4030;52.362;9.206;2023-04-03T15:15:15;1.67;;;0.90;;
7969;SDS011;4030;52.362;9.206;2023-04-03T15:17:44;2.03;;;0.90;;
7969;SDS011;4030;52.362;9.206;2023-04-03T15:20:17;1.67;;;0.85;;
7969;SDS011;4030;52.362;9.206;2023-04-03T15:22:46;2.33;;;0.88;;
7969;SDS011;4030;52.362;9.206;2023-04-03T15:25:11;1.80;;;0.90;;
7969;SDS011;4030;52.362;9.206;2023-04-03T15:27:37;1.35;;;0.90;;
7969;SDS011;4030;52.362;9.206;2023-04-03T15:30:05;1.70;;;0.80;;
7969;SDS011;4030;52.362;9.206;2023-04-03T15:32:36;1.65;;;0.90;;
7969;SDS011;4030;52.362;9.206;2023-04-03T15:35:02;2.47;;;1.08;;
7969;SDS011;4030;52.362;9.206;2023-04-03T15:37:28;1.35;;;0.85;;
7969;SDS011;4030;52.362;9.206;2023-04-03T15:39:53;1.77;;;0.80;;
7969;SDS011;4030;52.362;9.206;2023-04-03T15:42:19;0.82;;;0.65;;
7969;SDS011;4030;52.362;9.206;2023-04-03T15:44:45;1.67;;;0.90;;
7969;SDS011;4030;52.362;9.206;2023-04-03T15:47:11;1.52;;;0.82;;
7969;SDS011;4030;52.362;9.206;2023-04-03T15:49:37;2.45;;;1.00;;
7969;SDS011;4030;52.362;9.206;2023-04-03T15:52:03;2.25;;;0.90;;
7969;SDS011;4030;52.362;9.206;2023-04-03T15:54:29;2.75;;;0.93;;
7969;SDS011;4030;52.362;9.206;2023-04-03T15:56:55;1.25;;;0.80;;
7969;SDS011;4030;52.362;9.206;2023-04-03T15:59:21;2.20;;;1.13;;
7969;SDS011;4030;52.362;9.206;2023-04-03T16:01:47;2.47;;;0.93;;
7969;SDS011;4030;52.362;9.206;2023-04-03T16:04:15;2.40;;;1.00;;
7969;SDS011;4030;52.362;9.206;2023-04-03T16:06:41;2.15;;;1.40;;
7969;SDS011;4030;52.362;9.206;2023-04-03T16:09:08;5.70;;;4.97;;
7969;SDS011;4030;52.362;9.206;2023-04-03T16:11:35;10.70;;;8.55;;
7969;SDS011;4030;52.362;9.206;2023-04-03T16:14:03;8.55;;;7.00;;
7969;SDS011;4030;52.362;9.206;2023-04-03T16:16:30;14.02;;;11.57;;
7969;SDS011;4030;52.362;9.206;2023-04-03T16:18:56;13.43;;;11.02;;
7969;SDS011;4030;52.362;9.206;2023-04-03T16:21:22;16.20;;;14.50;;
7969;SDS011;4030;52.362;9.206;2023-04-03T16:23:48;17.08;;;13.60;;
7969;SDS011;4030;52.362;9.206;2023-04-03T16:26:14;22.70;;;18.38;;
7969;SDS011;4030;52.362;9.206;2023-04-03T16:28:42;16.88;;;14.65;;
7969;SDS011;4030;52.362;9.206;2023-04-03T16:31:08;17.50;;;14.07;;
7969;SDS011;4030;52.362;9.206;2023-04-03T16:33:34;13.88;;;11.75;;
7969;SDS011;4030;52.362;9.206;2023-04-03T16:36:01;16.75;;;14.95;;
7969;SDS011;4030;52.362;9.206;2023-04-03T16:38:30;14.65;;;12.63;;
7969;SDS011;4030;52.362;9.206;2023-04-03T16:40:56;15.02;;;12.93;;
7969;SDS011;4030;52.362;9.206;2023-04-03T16:43:24;13.70;;;12.15;;
7969;SDS011;4030;52.362;9.206;2023-04-03T16:45:51;10.73;;;9.55;;
7969;SDS011;4030;52.362;9.206;2023-04-03T16:48:17;10.85;;;8.82;;
7969;SDS011;4030;52.362;9.206;2023-04-03T16:50:45;10.63;;;8.55;;
7969;SDS011;4030;52.362;9.206;2023-04-03T16:53:13;14.27;;;12.10;;